Time;durP1;ratioP1;P1;durP2;ratioP2;P2;SDS_P1;SDS_P2;PMS_P1;PMS_P2;Temp;Humidity;BMP_temperature;BMP_pressure;BME280_temperature;BME280_humidity;BME280_pressure;Samples;Min_cycle;Max_cycle;Signal;HPM_P1;HPM_P2
2021/12/24 00:00:32;;;;;;;;;;;-5.70;70.90;;;-6.25;97.01;98196.03;5027323;28;118870;-81
2021/12/24 00:03:01;;;;;;;;;;;-5.70;70.50;;;-6.16;97.15;98192.75;5023583;28;119674;-81
2021/12/24 00:05:29;;;;;;;;;;;-5.70;70.60;;;-6.23;97.30;98193.94;5027138;28;129918;-81
2021/12/24 00:07:58;;;;;;;;;;;-5.70;71.10;;;-6.07;96.37;98182.66;5026871;28;128976;-81
2021/12/24 00:10:26;;;;;;;;;;;-5.70;72.10;;;-5.91;96.14;98182.91;5027710;28;119269;-81
2021/12/24 00:13:00;;;;;;;;;;;-5.70;73.60;;;-5.90;95.77;98187.94;5025350;28;119339;-81
2021/12/24 00:15:50;;;;;;;;;;;-5.70;73.60;;;-5.93;95.19;98188.41;5026792;28;128984;-81
2021/12/24 00:18:29;;;;;;;;;;;-5.70;73.70;;;-5.98;95.34;98177.78;5009498;28;129338;-81
2021/12/24 00:35:15;;;;;;;;;;;-5.80;70.30;;;-6.12;95.16;98147.41;5024004;28;119079;-81
2021/12/24 00:37:46;;;;;;;;;;;-5.80;71.40;;;-6.15;95.34;98138.91;5024565;28;130002;-81
2021/12/24 00:40:21;;;;;;;;;;;-5.80;71.20;;;-6.19;95.13;98132.50;5023739;28;129881;-81
2021/12/24 00:42:51;;;;;;;;;;;-5.90;70.40;;;-6.13;95.25;98130.75;5023727;28;120441;-80
2021/12/24 00:45:22;;;;;;;;;;;-6.00;71.10;;;-6.17;95.09;98119.88;5010264;28;118295;-81
2021/12/24 00:48:02;;;;;;;;;;;-5.90;70.80;;;-6.09;94.09;98104.66;5022687;28;129905;-80
2021/12/24 00:50:46;;;;;;;;;;;-5.90;71.10;;;-6.27;95.32;98106.47;5010610;28;129327;-81
2021/12/24 00:55:57;;;;;;;;;;;-6.00;71.10;;;-6.36;96.05;98092.88;5026473;28;119228;-79
2021/12/24 00:58:25;;;;;;;;;;;-6.10;72.20;;;-6.36;96.41;98097.31;5010359;28;129307;-80
2021/12/24 01:00:54;;;;;;;;;;;-6.00;73.10;;;-6.25;95.20;98096.47;5027000;28;130723;-81
2021/12/24 01:03:23;;;;;;;;;;;-6.00;73.80;;;-6.42;96.17;98082.41;5010905;28;117639;-80
2021/12/24 01:05:54;;;;;;;;;;;-6.00;74.20;;;-6.42;96.18;98075.31;5031680;28;118974;-80
2021/12/24 01:08:22;;;;;;;;;;;-6.10;73.60;;;-6.36;95.94;98073.56;5030028;28;128512;-80
2021/12/24 01:10:53;;;;;;;;;;;-6.10;74.00;;;-6.32;95.70;98072.06;5025181;28;128893;-80
2021/12/24 01:13:21;;;;;;;;;;;-6.10;74.50;;;-6.46;96.32;98058.34;5023195;28;122454;-81
2021/12/24 01:15:56;;;;;;;;;;;-6.10;75.10;;;-6.35;96.20;98064.59;5009824;28;120816;-81
2021/12/24 01:18:33;;;;;;;;;;;-6.10;75.90;;;-6.39;96.49;98055.56;5009624;28;129294;-80
2021/12/24 01:21:10;;;;;;;;;;;-6.10;76.10;;;-6.36;96.10;98058.53;5009168;28;129571;-81
2021/12/24 01:23:47;;;;;;;;;;;-6.10;76.50;;;-6.28;95.43;98062.59;5007830;28;119054;-81
2021/12/24 01:26:21;;;;;;;;;;;-6.10;77.20;;;-6.37;95.73;98049.00;5009703;28;117741;-82
2021/12/24 01:29:08;;;;;;;;;;;-6.20;77.10;;;-6.46;96.06;98039.06;5022851;28;129591;-81
2021/12/24 01:40:08;;;;;;;;;;;-6.40;76.10;;;-6.83;96.46;98018.31;5022917;28;129849;-82
2021/12/24 01:42:46;;;;;;;;;;;-6.40;75.90;;;-6.98;97.20;98017.00;5022595;28;129956;-82
2021/12/24 01:45:19;;;;;;;;;;;-6.50;75.50;;;-7.01;97.44;98012.19;5009537;28;119262;-81
2021/12/24 01:47:48;;;;;;;;;;;-6.50;76.00;;;-7.00;97.09;98008.50;5009313;28;118517;-82
2021/12/24 01:50:18;;;;;;;;;;;-6.60;75.10;;;-7.14;97.03;98004.53;5025624;28;130177;-82
2021/12/24 01:52:50;;;;;;;;;;;-6.60;74.90;;;-7.24;96.61;97998.00;5025993;28;129571;-81
2021/12/24 01:55:19;;;;;;;;;;;-6.70;74.10;;;-7.21;96.88;97983.56;5009225;28;119078;-81
2021/12/24 01:57:48;;;;;;;;;;;-6.70;73.50;;;-7.36;97.13;97970.88;5024350;28;119048;-82
2021/12/24 02:00:19;;;;;;;;;;;-6.80;73.70;;;-7.20;97.08;97976.47;5025695;28;129517;-81
2021/12/24 02:02:48;;;;;;;;;;;-6.80;74.10;;;-7.16;97.38;97980.25;5023508;28;130083;-82
2021/12/24 02:05:16;;;;;;;;;;;-6.80;74.80;;;-7.16;97.27;97977.59;5010380;28;121357;-81
2021/12/24 02:07:45;;;;;;;;;;;-6.70;76.00;;;-7.10;97.24;97959.00;5030308;28;120558;-81
2021/12/24 02:10:26;;;;;;;;;;;-6.70;76.30;;;-7.26;97.53;97955.28;5013653;28;129186;-82
2021/12/24 02:12:55;;;;;;;;;;;-6.70;76.20;;;-7.12;97.80;97949.72;5032974;28;128532;-81
2021/12/24 02:15:36;;;;;;;;;;;-6.60;75.90;;;-7.03;97.41;97943.03;5029387;28;118967;-82
2021/12/24 02:18:35;;;;;;;;;;;-6.60;75.60;;;-7.23;97.23;97939.00;5029317;28;118440;-82
2021/12/24 02:29:22;;;;;;;;;;;-6.60;73.60;;;-6.99;96.16;97907.25;5012176;28;118372;-83
2021/12/24 02:31:51;;;;;;;;;;;-6.60;73.90;;;-7.02;96.21;97906.94;5010328;28;129236;-83
2021/12/24 02:34:19;;;;;;;;;;;-6.60;74.10;;;-7.23;96.75;97902.06;5011742;28;129483;-82
2021/12/24 02:36:49;;;;;;;;;;;-6.70;73.40;;;-7.14;96.66;97909.59;5012091;28;118697;-83
2021/12/24 02:39:49;;;;;;;;;;;-6.70;73.40;;;-7.23;96.64;97891.53;5028435;28;119214;-82
2021/12/24 02:42:21;;;;;;;;;;;-6.80;73.20;;;-7.36;96.42;97901.56;5011399;28;129001;-81
2021/12/24 02:44:52;;;;;;;;;;;-6.90;73.00;;;-7.56;97.51;97888.78;5024960;28;129674;-81
2021/12/24 02:47:41;;;;;;;;;;;-7.00;73.20;;;-7.48;97.39;97878.69;5028656;28;119660;-81
2021/12/24 02:55:42;;;;;;;;;;;-7.10;74.50;;;-7.61;97.89;97895.53;5025400;28;129733;-82
2021/12/24 02:58:11;;;;;;;;;;;-7.10;74.60;;;-7.60;97.46;97875.28;5009617;28;121476;-82
2021/12/24 03:00:39;;;;;;;;;;;-7.10;75.30;;;-7.57;97.27;97879.25;5028677;27;120702;-82
2021/12/24 03:03:07;;;;;;;;;;;-7.20;75.70;;;-7.66;97.35;97877.00;5011301;28;129144;-82
2021/12/24 03:05:36;;;;;;;;;;;-7.20;75.30;;;-7.67;97.50;97870.13;5028195;28;129179;-82
2021/12/24 03:08:06;;;;;;;;;;;-7.20;75.50;;;-7.67;97.17;97870.13;5028471;28;118766;-81
2021/12/24 03:10:36;;;;;;;;;;;-7.20;75.50;;;-7.72;97.45;97856.84;5011799;28;118708;-84
2021/12/24 03:13:05;;;;;;;;;;;-7.20;75.30;;;-7.67;97.41;97854.31;5011080;28;129200;-82
2021/12/24 03:15:34;;;;;;;;;;;-7.30;75.50;;;-7.63;96.85;97844.91;5010792;27;128944;-84
2021/12/24 03:18:02;;;;;;;;;;;-7.30;76.00;;;-7.72;97.21;97846.31;5010982;28;119246;-83
2021/12/24 03:20:34;;;;;;;;;;;-7.30;76.80;;;-7.78;97.67;97837.50;5010616;28;118776;-83
2021/12/24 03:23:10;;;;;;;;;;;-7.30;76.80;;;-7.81;98.15;97826.63;5026789;28;129962;-83
2021/12/24 03:25:41;;;;;;;;;;;-7.30;76.10;;;-7.75;97.12;97828.34;5013183;28;129020;-84
2021/12/24 03:28:09;;;;;;;;;;;-7.30;76.20;;;-7.72;97.24;97834.97;5029579;28;118981;-83
2021/12/24 03:30:37;;;;;;;;;;;-7.30;75.80;;;-7.66;97.08;97818.25;5011336;28;118242;-82
2021/12/24 03:33:06;;;;;;;;;;;-7.30;75.60;;;-7.69;96.45;97816.88;5010960;28;129497;-81
2021/12/24 03:35:34;;;;;;;;;;;-7.40;76.10;;;-7.82;96.64;97820.56;5027763;28;127925;-82
2021/12/24 03:38:03;;;;;;;;;;;-7.40;76.40;;;-7.85;97.38;97804.41;5045147;27;119410;-80
2021/12/24 03:40:31;;;;;;;;;;;-7.40;75.50;;;-7.92;97.70;97795.88;5028800;28;118634;-80
2021/12/24 03:43:01;;;;;;;;;;;-7.40;75.30;;;-7.86;96.75;97800.19;5011148;28;129242;-81
2021/12/24 03:45:36;;;;;;;;;;;-7.50;74.80;;;-7.85;96.60;97799.97;5010328;28;129479;-81
2021/12/24 03:48:15;;;;;;;;;;;-7.50;75.80;;;-7.98;96.51;97790.50;5009931;28;120995;-81
2021/12/24 03:50:50;;;;;;;;;;;-7.60;76.20;;;-7.95;96.75;97797.94;5011349;28;120988;-81
2021/12/24 03:56:05;;;;;;;;;;;-7.60;76.50;;;-8.00;96.78;97776.75;5027298;28;129599;-82
2021/12/24 03:58:35;;;;;;;;;;;-7.70;76.50;;;-8.07;97.35;97770.84;5010901;28;119442;-81
2021/12/24 04:01:37;;;;;;;;;;;-7.70;77.10;;;-8.08;96.70;97774.50;4997000;28;118479;-83
2021/12/24 04:04:32;;;;;;;;;;;-7.70;78.10;;;-8.20;97.67;97773.72;4976135;28;129661;-82
2021/12/24 04:07:20;;;;;;;;;;;-7.70;78.50;;;-8.15;97.82;97773.81;4990902;28;130050;-83
2021/12/24 04:10:31;;;;;;;;;;;-7.60;77.70;;;-8.14;97.73;97775.44;4993523;28;119929;-81
2021/12/24 04:13:20;;;;;;;;;;;-7.60;77.30;;;-8.01;97.95;97762.00;5010359;28;119770;-82
2021/12/24 04:15:49;;;;;;;;;;;-7.50;77.50;;;-7.93;96.97;97760.03;4995215;28;128859;-82
2021/12/24 04:18:23;;;;;;;;;;;-7.40;76.90;;;-7.92;97.40;97753.72;4975244;28;128861;-80
2021/12/24 04:26:23;;;;;;;;;;;-7.20;71.40;;;-7.82;96.64;97748.66;4972423;28;128787;-83
2021/12/24 04:28:51;;;;;;;;;;;-7.30;70.80;;;-7.77;96.07;97739.00;4989670;28;129028;-82
2021/12/24 04:31:27;;;;;;;;;;;-7.20;70.00;;;-7.88;96.52;97744.31;4990317;28;119250;-82
2021/12/24 04:34:11;;;;;;;;;;;-7.20;68.10;;;-7.82;96.61;97731.03;4990980;28;121521;-81
2021/12/24 04:36:56;;;;;;;;;;;-7.20;67.40;;;-7.70;96.22;97732.81;4986948;28;130789;-81
2021/12/24 04:39:41;;;;;;;;;;;-7.20;67.30;;;-7.69;95.87;97729.94;4990497;28;129669;-82
2021/12/24 05:01:44;;;;;;;;;;;-7.10;62.80;;;-7.78;96.58;97678.66;4989888;28;129352;-82
2021/12/24 05:04:16;;;;;;;;;;;-7.10;64.40;;;-7.75;96.35;97677.41;4991523;28;118773;-81
2021/12/24 05:06:52;;;;;;;;;;;-7.20;64.40;;;-7.72;95.83;97677.72;4992820;28;118904;-82
2021/12/24 05:09:24;;;;;;;;;;;-7.20;64.90;;;-7.84;95.89;97679.63;5009305;28;129941;-82
2021/12/24 05:11:53;;;;;;;;;;;-7.20;65.80;;;-7.78;96.57;97662.88;4993313;28;129375;-83
2021/12/24 05:14:21;;;;;;;;;;;-7.20;66.70;;;-7.85;95.53;97654.31;4993117;28;118822;-81
2021/12/24 05:17:19;;;;;;;;;;;-7.20;66.80;;;-7.80;96.41;97659.69;5009356;28;118713;-84
2021/12/24 05:23:13;;;;;;;;;;;-7.30;68.50;;;-7.82;95.45;97661.72;5002879;28;129610;-81
2021/12/24 05:25:43;;;;;;;;;;;-7.30;68.90;;;-7.72;95.49;97655.84;5029830;28;119186;-82
2021/12/24 05:28:12;;;;;;;;;;;-7.30;69.70;;;-7.97;96.33;97652.53;5033325;28;117716;-82
2021/12/24 05:30:41;;;;;;;;;;;-7.30;71.10;;;-7.97;96.90;97665.69;5048504;27;130461;-82
2021/12/24 05:33:24;;;;;;;;;;;-7.30;71.70;;;-8.01;97.29;97653.25;5014911;28;128656;-82
2021/12/24 05:35:57;;;;;;;;;;;-7.40;72.30;;;-7.82;96.44;97636.22;4999781;28;122631;-82
2021/12/24 05:38:26;;;;;;;;;;;-7.40;73.10;;;-7.86;96.22;97637.72;5041364;28;120508;-82
2021/12/24 05:40:54;;;;;;;;;;;-7.30;74.50;;;-7.87;96.67;97633.47;5024818;28;130942;-83
2021/12/24 05:43:25;;;;;;;;;;;-7.30;74.60;;;-7.85;96.84;97630.59;5062517;27;130320;-84
2021/12/24 05:45:54;;;;;;;;;;;-7.50;74.70;;;-7.78;96.80;97637.31;5028594;28;120143;-84
2021/12/24 05:48:27;;;;;;;;;;;-7.50;75.90;;;-7.82;97.01;97635.38;5029617;28;118052;-83
2021/12/24 05:51:06;;;;;;;;;;;-7.30;76.30;;;-7.88;97.00;97631.06;5059851;27;133140;-83
2021/12/24 05:53:53;;;;;;;;;;;-7.40;75.40;;;-7.87;97.00;97612.41;5023062;28;129342;-82
2021/12/24 05:56:23;;;;;;;;;;;-7.40;76.60;;;-7.89;97.24;97611.06;5022036;28;118159;-82
2021/12/24 05:59:04;;;;;;;;;;;-7.40;77.50;;;-7.96;97.21;97617.28;5005568;28;117760;-82
2021/12/24 06:01:39;;;;;;;;;;;-7.40;78.70;;;-7.98;97.37;97606.19;5008310;28;129914;-81
2021/12/24 06:04:07;;;;;;;;;;;-7.40;79.40;;;-7.89;97.74;97616.31;5038582;28;129446;-82
2021/12/24 06:06:37;;;;;;;;;;;-7.50;79.90;;;-7.83;96.86;97596.94;5023372;28;118323;-82
2021/12/24 06:09:08;;;;;;;;;;;-7.50;80.50;;;-7.92;97.28;97599.16;5002764;28;119104;-80
2021/12/24 06:11:37;;;;;;;;;;;-7.40;81.10;;;-7.85;97.73;97594.53;5036375;28;129996;-82
2021/12/24 06:14:10;;;;;;;;;;;-7.60;81.20;;;-7.77;97.54;97593.34;5037657;28;129744;-82
2021/12/24 06:16:46;;;;;;;;;;;-7.50;82.00;;;-7.92;98.00;97587.84;5016742;28;119788;-81
2021/12/24 06:19:17;;;;;;;;;;;-7.40;83.00;;;-7.91;98.14;97589.44;5039423;28;119282;-82
2021/12/24 06:21:47;;;;;;;;;;;-7.40;82.30;;;-7.86;97.73;97594.78;5018457;28;128887;-83
2021/12/24 06:24:17;;;;;;;;;;;-7.40;82.60;;;-7.84;98.39;97592.69;4995721;28;128832;-79
2021/12/24 06:26:58;;;;;;;;;;;-7.40;82.90;;;-7.74;97.27;97579.72;5025838;28;122171;-79
2021/12/24 06:29:26;;;;;;;;;;;-7.50;83.40;;;-7.66;97.34;97575.88;5027461;28;121466;-80
2021/12/24 06:31:55;;;;;;;;;;;-7.30;83.70;;;-7.64;97.09;97579.84;5027416;28;130249;-79
2021/12/24 06:34:26;;;;;;;;;;;-7.30;82.90;;;-7.62;97.39;97575.16;5027836;28;129833;-80
2021/12/24 06:36:56;;;;;;;;;;;-7.20;82.60;;;-7.58;97.42;97572.81;4996153;28;119219;-79
2021/12/24 06:39:25;;;;;;;;;;;-7.20;82.80;;;-7.47;97.10;97560.59;5026855;28;119749;-80
2021/12/24 06:41:54;;;;;;;;;;;-7.10;83.00;;;-7.39;96.71;97554.91;5011760;28;130126;-80
2021/12/24 06:44:24;;;;;;;;;;;-7.00;83.00;;;-7.47;97.17;97568.50;5026918;28;129997;-80
2021/12/24 06:46:52;;;;;;;;;;;-7.00;82.30;;;-7.41;96.96;97555.16;5026903;28;120056;-78
2021/12/24 06:49:22;;;;;;;;;;;-6.90;81.30;;;-7.30;97.06;97547.38;5026434;28;119138;-80
2021/12/24 06:51:50;;;;;;;;;;;-6.90;81.30;;;-7.22;96.79;97545.13;5024959;28;130163;-80
2021/12/24 06:54:20;;;;;;;;;;;-6.80;81.80;;;-7.16;95.82;97542.56;5011922;28;129233;-80
2021/12/24 06:56:50;;;;;;;;;;;-6.80;80.20;;;-7.24;95.91;97541.94;5011748;28;119569;-81
2021/12/24 06:59:18;;;;;;;;;;;-6.80;79.70;;;-7.12;96.31;97530.47;4994974;28;118178;-81
2021/12/24 07:01:47;;;;;;;;;;;-6.70;79.40;;;-7.10;96.07;97525.78;5011126;28;129817;-80
2021/12/24 07:04:15;;;;;;;;;;;-6.70;77.70;;;-6.96;95.40;97518.28;4994655;28;129015;-80
2021/12/24 07:06:45;;;;;;;;;;;-6.60;78.80;;;-6.97;95.52;97524.59;5026330;28;119898;-80
2021/12/24 07:09:14;;;;;;;;;;;-6.70;76.30;;;-6.93;95.60;97521.22;5008864;28;119017;-80
2021/12/24 07:11:44;;;;;;;;;;;-6.50;76.40;;;-6.70;94.61;97514.06;5010975;28;129593;-81
2021/12/24 07:14:12;;;;;;;;;;;-6.50;76.20;;;-6.63;94.06;97505.97;5025942;28;130241;-81
2021/12/24 07:16:41;;;;;;;;;;;-6.40;76.60;;;-6.59;94.17;97494.69;5026116;28;122149;-79
2021/12/24 07:19:09;;;;;;;;;;;-6.40;76.60;;;-6.67;94.33;97500.38;5010825;28;121070;-78
2021/12/24 07:21:40;;;;;;;;;;;-6.40;74.00;;;-6.55;93.35;97495.75;4994448;28;129120;-81
2021/12/24 07:24:10;;;;;;;;;;;-6.40;73.70;;;-6.59;93.69;97489.41;5010499;28;129435;-79
2021/12/24 07:26:38;;;;;;;;;;;-6.30;72.10;;;-6.67;94.10;97489.81;5026556;28;119676;-80
2021/12/24 07:29:07;;;;;;;;;;;-6.30;70.00;;;-6.51;93.20;97481.03;5025375;28;119381;-79
2021/12/24 07:31:36;;;;;;;;;;;-6.30;69.80;;;-6.44;93.57;97469.47;4992443;28;128976;-79
2021/12/24 07:34:04;;;;;;;;;;;-6.30;69.70;;;-6.44;93.35;97464.19;5024475;28;130499;-80
2021/12/24 07:36:32;;;;;;;;;;;-6.20;69.60;;;-6.62;93.45;97468.78;5025302;28;119711;-80
2021/12/24 07:39:00;;;;;;;;;;;-6.20;65.70;;;-6.40;92.75;97467.94;5007367;28;119082;-79
2021/12/24 07:41:28;;;;;;;;;;;-6.20;65.10;;;-6.27;92.21;97464.06;5005863;28;129962;-81
2021/12/24 07:43:57;;;;;;;;;;;-6.10;65.50;;;-6.21;91.95;97465.69;5010345;28;129161;-79
2021/12/24 07:46:33;;;;;;;;;;;-6.10;65.10;;;-6.19;92.10;97461.75;5025416;28;119429;-78
2021/12/24 07:49:17;;;;;;;;;;;-6.10;65.10;;;-6.21;92.02;97458.56;5025580;28;119021;-79
2021/12/24 07:54:40;;;;;;;;;;;-6.10;60.00;;;-6.33;91.32;97457.94;5001078;28;130425;-79
2021/12/24 07:57:11;;;;;;;;;;;-6.10;59.70;;;-6.27;91.45;97451.66;4994275;28;119322;-80
2021/12/24 07:59:40;;;;;;;;;;;-6.10;60.70;;;-6.11;91.30;97447.28;5011230;28;119073;-80
2021/12/24 08:02:13;;;;;;;;;;;-6.00;62.30;;;-6.26;90.90;97434.78;5024720;27;130060;-79
2021/12/24 08:04:42;;;;;;;;;;;-6.00;58.70;;;-6.24;91.59;97426.59;5025172;28;129510;-79
2021/12/24 08:07:12;;;;;;;;;;;-6.00;59.60;;;-6.01;90.79;97430.72;5024258;28;122243;-79
2021/12/24 08:09:41;;;;;;;;;;;-6.00;62.10;;;-6.12;90.42;97426.41;5011001;28;121670;-79
2021/12/24 08:12:11;;;;;;;;;;;-6.00;61.70;;;-6.25;91.47;97414.44;5010241;28;129013;-79
2021/12/24 08:14:40;;;;;;;;;;;-6.00;62.10;;;-6.04;91.36;97404.81;5025008;28;130822;-79
2021/12/24 08:17:10;;;;;;;;;;;-5.90;63.50;;;-5.91;90.96;97412.25;5026873;28;119960;-79
2021/12/24 08:19:45;;;;;;;;;;;-5.80;64.20;;;-5.78;90.98;97409.16;5025210;28;119109;-80
2021/12/24 08:22:24;;;;;;;;;;;-5.80;64.10;;;-5.55;89.13;97401.84;5003534;28;129091;-79
2021/12/24 08:24:52;;;;;;;;;;;-5.60;64.30;;;-5.72;89.83;97406.53;5007474;28;128535;-78
2021/12/24 08:27:29;;;;;;;;;;;-5.70;63.30;;;-5.46;89.39;97394.22;4990413;28;118910;-79
2021/12/24 08:29:57;;;;;;;;;;;-5.60;64.00;;;-5.67;89.60;97398.63;5005542;28;119288;-78
2021/12/24 08:32:28;;;;;;;;;;;-5.60;61.90;;;-5.68;89.59;97410.25;5003190;28;129893;-79
2021/12/24 08:34:56;;;;;;;;;;;-5.60;61.40;;;-5.74;89.51;97403.34;5004998;28;129783;-79
2021/12/24 08:37:24;;;;;;;;;;;-5.70;59.90;;;-5.66;89.73;97413.44;5005113;28;119179;-79
2021/12/24 08:39:53;;;;;;;;;;;-5.70;61.40;;;-5.60;89.83;97415.06;5004917;28;119297;-79
2021/12/24 08:42:25;;;;;;;;;;;-5.70;62.80;;;-5.70;90.29;97409.69;5004661;28;130713;-79
2021/12/24 08:44:54;;;;;;;;;;;-5.70;63.90;;;-5.84;89.54;97407.53;5004491;28;129943;-79
2021/12/24 08:47:22;;;;;;;;;;;-5.80;62.10;;;-5.75;91.32;97412.31;5004852;28;119743;-80
2021/12/24 08:50:10;;;;;;;;;;;-5.70;64.00;;;-5.61;89.93;97397.59;5005135;28;119772;-80
2021/12/24 08:52:38;;;;;;;;;;;-5.70;62.90;;;-5.45;89.45;97382.59;4989648;28;130328;-80
2021/12/24 08:55:09;;;;;;;;;;;-5.60;62.90;;;-5.49;90.00;97369.09;5004088;28;130348;-79
2021/12/24 08:57:38;;;;;;;;;;;-5.60;64.60;;;-5.39;88.28;97356.97;5004988;28;121260;-79
2021/12/24 09:00:09;;;;;;;;;;;-5.50;63.30;;;-5.16;88.93;97343.25;5003801;28;121980;-80
2021/12/24 09:02:37;;;;;;;;;;;-5.40;64.20;;;-5.01;88.04;97337.22;5004356;28;130012;-80
2021/12/24 09:05:07;;;;;;;;;;;-5.30;61.00;;;-4.77;86.92;97324.28;5004123;28;130708;-80
2021/12/24 09:07:37;;;;;;;;;;;-5.10;60.10;;;-4.66;86.02;97316.31;5006513;28;120181;-80
2021/12/24 09:10:06;;;;;;;;;;;-5.10;58.80;;;-4.65;85.46;97312.63;5006477;28;119294;-79
2021/12/24 09:12:34;;;;;;;;;;;-5.10;55.10;;;-4.50;86.26;97309.97;5005677;28;129025;-80
2021/12/24 09:15:04;;;;;;;;;;;-4.90;58.60;;;-4.22;85.18;97305.16;5005900;28;129525;-80
2021/12/24 09:17:32;;;;;;;;;;;-4.70;57.80;;;-4.28;83.65;97311.50;5008247;28;119941;-79
2021/12/24 09:20:01;;;;;;;;;;;-4.80;54.10;;;-4.24;83.22;97301.94;5009680;28;118456;-80
2021/12/24 09:22:33;;;;;;;;;;;-4.80;50.70;;;-4.01;83.20;97306.66;5011552;28;129543;-80
2021/12/24 09:25:03;;;;;;;;;;;-4.60;53.70;;;-3.82;82.06;97287.50;5012504;28;129576;-80
2021/12/24 09:27:31;;;;;;;;;;;-4.50;54.20;;;-3.73;83.40;97280.56;5012885;28;119099;-81
2021/12/24 09:30:00;;;;;;;;;;;-4.50;52.70;;;-3.78;81.35;97293.84;4996458;28;118595;-77
2021/12/24 09:32:29;;;;;;;;;;;-4.50;47.10;;;-3.81;81.54;97289.09;5009336;28;129915;-77
2021/12/24 09:34:57;;;;;;;;;;;-4.50;44.20;;;-3.75;80.54;97298.59;5012655;28;130011;-80
2021/12/24 09:37:25;;;;;;;;;;;-4.50;41.80;;;-4.02;81.71;97278.56;5027909;28;119720;-79
2021/12/24 09:39:54;;;;;;;;;;;-4.50;41.90;;;-4.07;81.49;97265.34;5028401;28;119409;-80
2021/12/24 09:42:27;;;;;;;;;;;-4.60;40.00;;;-4.13;81.97;97271.72;5027536;28;130239;-80
2021/12/24 09:44:55;;;;;;;;;;;-4.60;41.40;;;-3.90;81.92;97265.00;5027185;28;130041;-80
2021/12/24 09:47:24;;;;;;;;;;;-4.50;43.80;;;-4.06;81.85;97255.53;5027818;28;122820;-78
2021/12/24 09:49:52;;;;;;;;;;;-4.60;42.10;;;-4.22;82.10;97242.34;5005978;28;122838;-79
2021/12/24 09:52:21;;;;;;;;;;;-4.70;39.50;;;-4.43;83.15;97236.31;5027015;28;130123;-78
2021/12/24 09:54:49;;;;;;;;;;;-4.80;44.60;;;-4.45;83.83;97237.66;5012316;28;129687;-79
2021/12/24 09:57:18;;;;;;;;;;;-4.80;47.20;;;-4.36;83.74;97236.84;5012702;28;119843;-81
2021/12/24 09:59:47;;;;;;;;;;;-4.70;49.50;;;-4.57;83.73;97222.84;5027042;28;118960;-80
2021/12/24 10:02:18;;;;;;;;;;;-4.70;49.90;;;-4.43;83.13;97223.06;5026577;28;130151;-81
2021/12/24 10:04:47;;;;;;;;;;;-4.70;49.90;;;-4.32;83.36;97220.41;5027063;28;130078;-77
2021/12/24 10:07:17;;;;;;;;;;;-4.80;47.20;;;-4.19;83.01;97214.50;5012279;28;119753;-79
2021/12/24 10:09:49;;;;;;;;;;;-4.60;51.30;;;-4.38;84.07;97201.91;5012225;28;118416;-79
2021/12/24 10:12:20;;;;;;;;;;;-4.60;52.00;;;-4.30;83.47;97203.19;4993926;28;129027;-79
2021/12/24 10:14:52;;;;;;;;;;;-4.70;48.10;;;-4.31;84.22;97206.91;5012140;28;129174;-78
2021/12/24 10:17:22;;;;;;;;;;;-4.70;50.20;;;-4.22;84.03;97204.50;5027178;28;119793;-79
2021/12/24 10:19:53;;;;;;;;;;;-4.60;53.70;;;-4.00;83.31;97191.66;5027271;28;119166;-80
2021/12/24 10:22:28;;;;;;;;;;;-4.50;53.90;;;-3.86;83.78;97191.84;5030963;28;130062;-79
2021/12/24 10:25:01;;;;;;;;;;;-4.40;54.20;;;-3.89;82.62;97191.59;5012870;27;130235;-79
2021/12/24 10:27:31;;;;;;;;;;;-4.40;54.00;;;-3.64;82.44;97185.34;5027555;28;119861;-76
2021/12/24 10:30:02;;;;;;;;;;;-4.30;54.50;;;-3.81;81.74;97191.81;5009557;28;119160;-78
2021/12/24 10:32:30;;;;;;;;;;;-4.40;49.60;;;-3.94;81.89;97192.44;5023267;28;130075;-79
2021/12/24 10:34:59;;;;;;;;;;;-4.40;48.20;;;-3.90;81.89;97200.63;4995043;28;129266;-79
2021/12/24 10:37:28;;;;;;;;;;;-4.40;45.90;;;-4.02;82.02;97191.13;5024987;28;123005;-79
2021/12/24 10:40:00;;;;;;;;;;;-4.30;45.30;;;-3.93;82.11;97179.97;5029225;28;121532;-81
2021/12/24 10:42:31;;;;;;;;;;;-4.40;44.50;;;-3.83;81.89;97193.94;5011059;28;129219;-77
2021/12/24 10:45:03;;;;;;;;;;;-4.30;46.00;;;-3.83;81.70;97180.69;5011619;28;128453;-79
2021/12/24 10:47:35;;;;;;;;;;;-4.30;45.90;;;-3.78;81.16;97171.91;5026556;28;119950;-79
2021/12/24 10:50:24;;;;;;;;;;;-4.30;46.80;;;-3.76;81.78;97177.72;5011540;28;118106;-79
2021/12/24 10:55:34;;;;;;;;;;;-4.40;44.20;;;-4.11;82.89;97153.03;5026598;28;130185;-79
2021/12/24 10:58:16;;;;;;;;;;;-4.40;45.70;;;-4.03;83.99;97155.09;5011765;28;118984;-79
2021/12/24 11:00:48;;;;;;;;;;;-4.40;50.30;;;-4.24;83.76;97153.63;5011608;28;118183;-80
2021/12/24 11:03:20;;;;;;;;;;;-4.40;50.80;;;-4.17;84.43;97157.56;5024756;28;131088;-79
2021/12/24 11:05:56;;;;;;;;;;;-4.40;53.30;;;-4.04;83.34;97153.50;5011196;28;129394;-79
2021/12/24 11:08:27;;;;;;;;;;;-4.40;53.90;;;-4.19;84.24;97145.63;4995042;28;118985;-79
2021/12/24 11:10:57;;;;;;;;;;;-4.40;54.60;;;-4.02;83.84;97146.09;5025995;28;119290;-78
2021/12/24 11:13:29;;;;;;;;;;;-4.40;54.30;;;-4.12;84.15;97145.38;5011030;28;129455;-80
2021/12/24 11:16:02;;;;;;;;;;;-4.40;54.00;;;-4.06;84.61;97139.75;5025824;28;129877;-80
2021/12/24 11:18:32;;;;;;;;;;;-4.40;54.10;;;-4.06;84.46;97150.34;5026155;28;119600;-80
2021/12/24 11:21:04;;;;;;;;;;;-4.40;54.80;;;-4.17;84.28;97138.22;5011290;28;119000;-79
2021/12/24 11:24:01;;;;;;;;;;;-4.40;55.00;;;-4.21;84.73;97131.88;5025394;28;130115;-79
2021/12/24 11:26:50;;;;;;;;;;;-4.50;55.40;;;-4.29;85.92;97140.41;5010080;28;130613;-79
2021/12/24 11:29:21;;;;;;;;;;;-4.50;56.60;;;-4.29;85.87;97135.13;4995933;28;121728;-79
2021/12/24 11:31:51;;;;;;;;;;;-4.50;58.20;;;-4.27;87.23;97122.38;5025889;28;122234;-79
2021/12/24 11:34:19;;;;;;;;;;;-4.50;59.20;;;-4.37;86.23;97118.72;5008174;28;131800;-79
2021/12/24 11:36:51;;;;;;;;;;;-4.60;58.90;;;-4.42;87.32;97105.50;4994959;28;129437;-79
2021/12/24 11:39:19;;;;;;;;;;;-4.60;62.50;;;-4.31;86.82;97085.06;5006758;28;119957;-79
2021/12/24 11:41:48;;;;;;;;;;;-4.60;64.30;;;-4.21;87.37;97076.25;5009123;28;119737;-79
2021/12/24 11:44:17;;;;;;;;;;;-4.50;65.30;;;-4.04;86.69;97063.44;5025312;28;130038;-79
2021/12/24 11:46:46;;;;;;;;;;;-4.40;66.80;;;-4.07;86.22;97061.31;5025846;28;129628;-78
2021/12/24 11:49:16;;;;;;;;;;;-4.40;69.20;;;-4.36;86.49;97056.75;4992510;28;118703;-79
2021/12/24 11:51:44;;;;;;;;;;;-4.50;66.60;;;-4.14;86.78;97060.88;4993851;28;118723;-79
2021/12/24 11:54:14;;;;;;;;;;;-4.40;68.30;;;-4.12;86.24;97050.00;5009141;28;129315;-78
2021/12/24 11:56:46;;;;;;;;;;;-4.40;68.40;;;-4.13;86.78;97043.88;5010214;28;129620;-78
2021/12/24 11:59:14;;;;;;;;;;;-4.40;69.40;;;-4.20;86.22;97041.56;5007418;28;119720;-78
2021/12/24 12:01:44;;;;;;;;;;;-4.50;66.40;;;-4.16;85.90;97045.25;4993576;28;118214;-78
2021/12/24 12:04:20;;;;;;;;;;;-4.50;66.20;;;-4.10;86.12;97047.84;5010205;28;129189;-78
2021/12/24 12:06:48;;;;;;;;;;;-4.40;66.60;;;-4.08;86.26;97045.72;5024944;28;130438;-79
2021/12/24 12:09:16;;;;;;;;;;;-4.40;67.00;;;-4.06;85.51;97044.38;5024939;28;119600;-79
2021/12/24 12:11:46;;;;;;;;;;;-4.40;64.20;;;-4.12;85.99;97044.69;5011796;28;118223;-78
2021/12/24 12:14:26;;;;;;;;;;;-4.40;65.40;;;-4.16;85.45;97049.72;5025000;28;130095;-78
2021/12/24 12:16:56;;;;;;;;;;;-4.40;63.40;;;-4.34;86.26;97049.31;4999515;28;128996;-78
2021/12/24 12:19:30;;;;;;;;;;;-4.50;59.10;;;-4.61;86.98;97043.66;5023659;28;122151;-78
2021/12/24 12:22:17;;;;;;;;;;;-4.60;58.70;;;-4.57;87.16;97039.41;5027467;28;121262;-78
2021/12/24 12:27:38;;;;;;;;;;;-4.70;59.80;;;-4.42;88.17;97018.13;5010844;28;102729;-79
2021/12/24 12:30:27;;;;;;;;;;;-4.70;60.80;;;-4.48;86.86;97027.19;5024988;28;119355;-78
2021/12/24 12:33:11;;;;;;;;;;;-4.60;58.40;;;-4.57;87.27;97019.00;5010040;28;118415;-78
2021/12/24 12:35:46;;;;;;;;;;;-4.70;61.60;;;-4.66;87.68;97014.56;5009765;28;129961;-77
2021/12/24 12:38:35;;;;;;;;;;;-4.70;61.00;;;-4.71;88.33;97002.94;5004845;28;130402;-77
2021/12/24 12:41:24;;;;;;;;;;;-4.80;61.20;;;-4.67;88.14;97002.38;5026395;28;118902;-77
2021/12/24 12:43:54;;;;;;;;;;;-4.70;63.70;;;-4.68;87.88;96998.19;5036126;27;118753;-78
2021/12/24 12:46:27;;;;;;;;;;;-4.80;64.00;;;-4.68;88.33;97012.19;5023279;28;129946;-79
2021/12/24 12:48:56;;;;;;;;;;;-4.80;65.30;;;-4.80;88.77;97001.97;5023185;28;129538;-79
2021/12/24 12:51:53;;;;;;;;;;;-4.80;65.50;;;-4.68;88.25;96998.19;5024222;28;119764;-77